Terminal Aerodrome Forecast
Issued by NWS Riverton, WY

Home | Current Version | Previous Version | Text Only | Print | Product List | Glossary On
Versions: 1 2 3 4 5 6 7 8 9 10 11 12 13 14 15 16 17
000
FTUS45 KRIW 151134
TAFRIW
TAF
KRIW 151134Z 1512/1612 29008KT P6SM VCFG SCT200
     FM151700 19006KT P6SM BKN200
     FM160200 30009KT P6SM BKN150
     FM161000 02007KT P6SM BKN060=

USA.gov is the U.S. government's official web portal to all federal, state and local government web resources and services.